Time;durP1;ratioP1;P1;durP2;ratioP2;P2;SDS_P1;SDS_P2;PMS_P1;PMS_P2;Temp;Humidity;BMP_temperature;BMP_pressure;BME280_temperature;BME280_humidity;BME280_pressure;Samples;Min_cycle;Max_cycle;Signal;HPM_P1;HPM_P2
2022/03/17 00:00:54;;;;;;;29.37;26.37;;;8.10;99.90;;;;;;5052079;28;20175;-58
2022/03/17 00:03:20;;;;;;;30.63;27.37;;;8.10;99.90;;;;;;5052099;28;20171;-58
2022/03/17 00:05:45;;;;;;;32.63;27.13;;;8.10;99.90;;;;;;5051541;28;20206;-58
2022/03/17 00:08:11;;;;;;;31.60;27.10;;;8.00;99.90;;;;;;5051888;28;20175;-56
2022/03/17 00:10:37;;;;;;;32.23;28.93;;;8.00;99.90;;;;;;5052076;28;20544;-57
2022/03/17 00:13:02;;;;;;;31.40;28.00;;;8.00;99.90;;;;;;5051890;28;20659;-56
2022/03/17 00:15:29;;;;;;;32.17;28.50;;;8.00;99.90;;;;;;5051726;28;20209;-58
2022/03/17 00:17:54;;;;;;;33.03;29.53;;;8.00;99.90;;;;;;5051645;28;20571;-58
2022/03/17 00:20:22;;;;;;;31.87;28.47;;;8.00;99.90;;;;;;5051819;28;20172;-57
2022/03/17 00:22:48;;;;;;;32.67;29.27;;;8.00;99.90;;;;;;5051677;28;20163;-59
2022/03/17 00:25:13;;;;;;;31.40;28.10;;;8.00;99.90;;;;;;5051659;28;20277;-58
2022/03/17 00:27:39;;;;;;;33.27;29.43;;;8.00;99.90;;;;;;5051382;28;20199;-59
2022/03/17 00:30:06;;;;;;;36.87;31.63;;;8.00;99.90;;;;;;5051772;28;20198;-59
2022/03/17 00:32:32;;;;;;;35.43;31.70;;;8.10;99.90;;;;;;5051364;28;20381;-58
2022/03/17 00:37:41;;;;;;;32.70;29.23;;;8.10;99.90;;;;;;5051643;28;20178;-59
2022/03/17 00:40:07;;;;;;;33.50;30.10;;;8.10;99.90;;;;;;5051526;28;20555;-59
2022/03/17 00:42:33;;;;;;;34.03;30.37;;;8.20;99.90;;;;;;5051702;28;20198;-59
2022/03/17 00:44:58;;;;;;;32.50;29.00;;;8.20;99.90;;;;;;5051511;28;20659;-58
2022/03/17 00:47:24;;;;;;;31.50;28.30;;;8.20;99.90;;;;;;5051260;28;20214;-59
2022/03/17 00:49:49;;;;;;;34.33;30.73;;;8.30;99.90;;;;;;5051519;28;20237;-58
2022/03/17 00:52:17;;;;;;;35.40;30.53;;;8.30;99.90;;;;;;5051763;28;20172;-58
2022/03/17 00:54:43;;;;;;;33.87;30.17;;;8.30;99.90;;;;;;5051475;28;20599;-55
2022/03/17 00:57:09;;;;;;;35.63;31.07;;;8.30;99.90;;;;;;5051338;28;20297;-57
2022/03/17 00:59:38;;;;;;;33.20;29.60;;;8.40;99.90;;;;;;5051439;28;20548;-59
2022/03/17 01:02:05;;;;;;;34.43;30.73;;;8.40;99.90;;;;;;5051395;28;20172;-54
2022/03/17 01:04:31;;;;;;;32.50;28.83;;;8.40;99.90;;;;;;5051337;28;20191;-54
2022/03/17 01:06:56;;;;;;;32.80;29.30;;;8.40;99.90;;;;;;5051010;28;20203;-59
2022/03/17 01:09:22;;;;;;;32.67;29.10;;;8.30;99.90;;;;;;5051289;28;20178;-59
2022/03/17 01:11:48;;;;;;;32.57;29.07;;;8.20;99.90;;;;;;5051354;28;20171;-54
2022/03/17 01:14:13;;;;;;;33.67;30.10;;;8.20;99.90;;;;;;5051284;28;20210;-57
2022/03/17 01:16:40;;;;;;;32.87;29.37;;;8.20;99.90;;;;;;5050964;28;20183;-59
2022/03/17 01:19:05;;;;;;;32.60;29.10;;;8.20;99.90;;;;;;5051240;28;20258;-57
2022/03/17 01:21:32;;;;;;;32.40;28.87;;;8.20;99.90;;;;;;5051167;28;20684;-54
2022/03/17 01:23:58;;;;;;;33.87;30.27;;;8.20;99.90;;;;;;5051167;28;20203;-56
2022/03/17 01:26:24;;;;;;;33.10;29.63;;;8.20;99.90;;;;;;5050695;28;20209;-59
2022/03/17 01:28:49;;;;;;;32.67;29.17;;;8.30;99.90;;;;;;5051148;28;20171;-53
2022/03/17 01:31:15;;;;;;;34.37;30.73;;;8.30;99.90;;;;;;5051106;28;20178;-57
2022/03/17 01:33:40;;;;;;;37.47;33.03;;;8.30;99.90;;;;;;5050984;28;20183;-55
2022/03/17 01:36:06;;;;;;;38.43;34.40;;;8.30;99.90;;;;;;5051050;28;20598;-56
2022/03/17 01:38:33;;;;;;;36.27;32.47;;;8.20;99.90;;;;;;5051028;28;20698;-56
2022/03/17 01:40:59;;;;;;;35.03;31.30;;;8.20;99.90;;;;;;5051086;28;20171;-59
2022/03/17 01:43:24;;;;;;;32.90;29.40;;;8.20;99.90;;;;;;5051042;28;20174;-57
2022/03/17 01:45:52;;;;;;;31.80;28.43;;;10.10;99.90;;;;;;5035207;28;20195;-53
2022/03/17 01:48:19;;;;;;;33.37;29.60;;;8.20;99.90;;;;;;5054344;28;20547;-58
2022/03/17 01:50:45;;;;;;;34.90;31.10;;;8.20;99.90;;;;;;5054788;28;20186;-59
2022/03/17 01:53:11;;;;;;;34.87;30.03;;;8.20;99.90;;;;;;5054514;28;20171;-59
2022/03/17 01:55:37;;;;;;;35.67;31.87;;;8.20;99.90;;;;;;5054179;28;20190;-57
2022/03/17 01:58:03;;;;;;;35.80;32.00;;;8.30;99.90;;;;;;5054296;28;20575;-58
2022/03/17 02:00:28;;;;;;;35.47;31.67;;;8.30;99.90;;;;;;5054381;28;20171;-57
2022/03/17 02:02:54;;;;;;;35.10;31.33;;;8.40;99.90;;;;;;5054359;28;20167;-55
2022/03/17 02:05:20;;;;;;;34.60;30.47;;;8.30;99.90;;;;;;5053910;28;20234;-58
2022/03/17 02:07:55;;;;;;;36.83;32.93;;;8.30;99.90;;;;;;5053892;28;20199;-57
2022/03/17 02:10:22;;;;;;;33.37;29.77;;;8.30;99.90;;;;;;5054164;28;20178;-55
2022/03/17 02:15:33;;;;;;;34.17;30.00;;;8.00;99.90;;;;;;5053705;28;20221;-52
2022/03/17 02:18:00;;;;;;;33.87;30.27;;;8.00;99.90;;;;;;5054063;28;20171;-59
2022/03/17 02:20:26;;;;;;;35.27;31.13;;;8.10;99.90;;;;;;5053959;28;20175;-58
2022/03/17 02:22:53;;;;;;;34.23;30.53;;;8.00;99.90;;;;;;5053868;28;20266;-56
2022/03/17 02:25:33;;;;;;;34.80;30.43;;;8.00;99.90;;;;;;5053612;28;20222;-57
2022/03/17 02:28:02;;;;;;;33.40;29.77;;;8.00;99.90;;;;;;5053769;28;20285;-59
2022/03/17 02:30:28;;;;;;;36.30;32.37;;;8.10;99.90;;;;;;5053804;28;20167;-57
2022/03/17 02:33:13;;;;;;;35.20;30.70;;;8.10;99.90;;;;;;5053549;28;20698;-58
2022/03/17 02:35:39;;;;;;;34.27;30.67;;;8.10;99.90;;;;;;5053384;28;20187;-54
2022/03/17 02:38:06;;;;;;;33.43;29.83;;;8.00;99.90;;;;;;5053653;28;20250;-58
2022/03/17 02:40:34;;;;;;;30.80;27.57;;;7.90;99.90;;;;;;5053620;28;20651;-58
2022/03/17 02:43:00;;;;;;;34.27;30.47;;;7.90;99.90;;;;;;5053420;28;20167;-58
2022/03/17 02:45:26;;;;;;;32.90;29.40;;;7.90;99.90;;;;;;5053551;28;20191;-58
2022/03/17 02:47:51;;;;;;;33.73;28.97;;;8.00;99.90;;;;;;5053054;28;20284;-59
2022/03/17 02:50:18;;;;;;;32.33;28.93;;;8.00;99.90;;;;;;5053412;28;20652;-55
2022/03/17 02:52:44;;;;;;;33.23;29.67;;;8.00;99.90;;;;;;5053304;28;20610;-59
2022/03/17 02:55:11;;;;;;;32.17;28.67;;;8.00;99.90;;;;;;5053311;28;20233;-58
2022/03/17 02:57:41;;;;;;;33.13;29.57;;;8.10;99.90;;;;;;5052133;28;20171;-58
2022/03/17 03:00:09;;;;;;;34.97;31.20;;;8.10;99.90;;;;;;5053299;28;20163;-59
2022/03/17 03:02:34;;;;;;;33.57;30.00;;;8.00;99.90;;;;;;5053070;28;20178;-56
2022/03/17 03:05:00;;;;;;;35.27;31.07;;;8.10;99.90;;;;;;5053142;28;20187;-59
2022/03/17 03:07:25;;;;;;;33.53;29.90;;;8.10;99.90;;;;;;5034806;28;20195;-57
2022/03/17 03:09:51;;;;;;;32.23;28.67;;;8.10;99.90;;;;;;5053097;28;20163;-59
2022/03/17 03:12:17;;;;;;;32.00;28.60;;;8.10;99.90;;;;;;5053128;28;20735;-57
2022/03/17 03:14:42;;;;;;;33.20;29.60;;;8.10;99.90;;;;;;5052766;28;20230;-57
2022/03/17 03:17:08;;;;;;;33.93;30.33;;;8.10;99.90;;;;;;5052669;28;20171;-57
2022/03/17 03:19:34;;;;;;;33.40;29.80;;;8.10;99.90;;;;;;5052776;28;20175;-59
2022/03/17 03:21:59;;;;;;;35.40;31.57;;;8.20;99.90;;;;;;5052585;28;20588;-58
2022/03/17 03:24:25;;;;;;;34.70;30.57;;;8.20;99.90;;;;;;5052571;28;20261;-59
2022/03/17 03:26:52;;;;;;;35.13;30.57;;;8.20;99.90;;;;;;5052437;28;20287;-58
2022/03/17 03:31:46;;;;;;;33.50;29.80;;;8.30;99.90;;;;;;5052876;28;20171;-58
2022/03/17 03:34:11;;;;;;;34.17;30.57;;;8.30;99.90;;;;;;5052593;28;20191;-56
2022/03/17 03:39:21;;;;;;;35.10;31.40;;;8.40;99.90;;;;;;5052355;28;20663;-55
2022/03/17 03:41:47;;;;;;;31.80;28.40;;;8.40;99.90;;;;;;5052407;28;20183;-57
2022/03/17 03:44:14;;;;;;;32.80;29.03;;;8.40;99.90;;;;;;5052491;28;20194;-54
2022/03/17 03:46:41;;;;;;;30.57;27.37;;;8.20;99.90;;;;;;5051992;28;20278;-56
2022/03/17 03:49:07;;;;;;;33.07;28.57;;;8.10;99.90;;;;;;5052203;28;20176;-57
2022/03/17 03:51:32;;;;;;;31.90;27.83;;;8.10;99.90;;;;;;5052186;28;20238;-55
2022/03/17 03:54:13;;;;;;;31.13;27.83;;;8.10;99.90;;;;;;5052322;28;20191;-58
2022/03/17 03:56:40;;;;;;;32.63;28.93;;;8.10;99.90;;;;;;5052022;28;20587;-55
2022/03/17 03:59:08;;;;;;;31.03;27.63;;;8.20;99.90;;;;;;5052214;28;20251;-58
2022/03/17 04:01:35;;;;;;;31.33;28.03;;;8.30;99.90;;;;;;5052040;28;20175;-56
2022/03/17 04:04:03;;;;;;;31.67;28.33;;;8.40;99.90;;;;;;5051937;28;20202;-59
2022/03/17 04:06:30;;;;;;;31.20;27.80;;;8.40;99.90;;;;;;5051670;28;20207;-57
2022/03/17 04:08:55;;;;;;;31.57;28.13;;;8.40;99.90;;;;;;5052035;28;20189;-59
2022/03/17 04:11:21;;;;;;;35.10;28.53;;;8.50;99.90;;;;;;5051996;28;20183;-57
2022/03/17 04:16:15;;;;;;;31.87;28.47;;;8.70;99.90;;;;;;5095469;22;20647;-58
2022/03/17 04:18:40;;;;;;;31.53;28.07;;;8.70;99.90;;;;;;5048318;28;20199;-58
2022/03/17 04:21:06;;;;;;;30.90;27.53;;;8.80;99.90;;;;;;5050919;28;20187;-58
2022/03/17 04:23:31;;;;;;;33.27;29.67;;;8.80;99.90;;;;;;5051318;28;20167;-58
2022/03/17 04:25:57;;;;;;;31.87;28.47;;;8.70;99.90;;;;;;5050823;28;20201;-57
2022/03/17 04:28:22;;;;;;;32.80;28.73;;;8.70;99.90;;;;;;5051172;28;20645;-58
2022/03/17 04:30:48;;;;;;;31.27;27.73;;;8.80;99.90;;;;;;5051576;28;20182;-58
2022/03/17 04:33:14;;;;;;;33.67;30.17;;;8.80;99.90;;;;;;5051543;28;20182;-53
2022/03/17 04:35:39;;;;;;;31.73;28.30;;;8.70;99.90;;;;;;5050857;28;20571;-58
2022/03/17 04:38:05;;;;;;;32.93;28.80;;;8.70;99.90;;;;;;5051490;28;20543;-59
2022/03/17 04:40:30;;;;;;;30.73;27.40;;;8.70;99.90;;;;;;5051574;28;20655;-59
2022/03/17 04:42:56;;;;;;;31.60;28.13;;;8.60;99.90;;;;;;5051563;28;20640;-58
2022/03/17 04:45:21;;;;;;;31.20;27.83;;;8.60;99.90;;;;;;5051368;28;20563;-58
2022/03/17 04:47:47;;;;;;;31.57;28.20;;;8.50;99.90;;;;;;5051073;28;20659;-59
2022/03/17 04:50:12;;;;;;;31.50;28.07;;;8.60;99.90;;;;;;5051516;28;20183;-59
2022/03/17 04:55:22;;;;;;;34.50;28.70;;;8.50;99.90;;;;;;5051333;28;20737;-58
2022/03/17 04:57:47;;;;;;;35.93;29.57;;;8.50;99.90;;;;;;5051057;28;20210;-59
2022/03/17 05:00:14;;;;;;;33.77;28.27;;;8.40;99.90;;;;;;5051161;28;20186;-54
2022/03/17 05:02:39;;;;;;;32.07;28.00;;;8.40;99.90;;;;;;5033619;28;20179;-53
2022/03/17 05:05:05;;;;;;;34.33;30.17;;;8.30;99.90;;;;;;5051187;28;20191;-60
2022/03/17 05:07:31;;;;;;;32.57;29.07;;;8.20;99.90;;;;;;5050876;28;20245;-61
2022/03/17 05:09:57;;;;;;;37.07;31.03;;;8.20;99.90;;;;;;5051339;28;20246;-57
2022/03/17 05:12:22;;;;;;;33.70;29.37;;;8.20;99.90;;;;;;5051275;28;20178;-57
2022/03/17 05:14:48;;;;;;;30.10;26.67;;;8.20;99.90;;;;;;5033275;28;20221;-60
2022/03/17 05:17:13;;;;;;;29.50;26.30;;;8.20;99.90;;;;;;5050845;28;20180;-57
2022/03/17 05:19:39;;;;;;;29.87;26.30;;;8.20;99.90;;;;;;5051910;28;20258;-59
2022/03/17 05:22:04;;;;;;;30.47;27.23;;;8.20;99.90;;;;;;5054201;28;20186;-54
2022/03/17 05:24:32;;;;;;;33.17;29.43;;;8.20;99.90;;;;;;5054814;28;20245;-52
2022/03/17 05:26:58;;;;;;;33.40;29.03;;;8.30;99.90;;;;;;5054088;28;20540;-56
2022/03/17 05:29:23;;;;;;;35.83;30.37;;;8.40;99.90;;;;;;5054905;28;20182;-58
2022/03/17 05:31:49;;;;;;;36.33;31.50;;;8.30;99.90;;;;;;5054741;28;20175;-56
2022/03/17 05:34:15;;;;;;;37.17;33.13;;;8.30;99.90;;;;;;5054899;28;20191;-56
2022/03/17 05:36:40;;;;;;;36.90;31.63;;;8.40;99.90;;;;;;5054408;28;20224;-56
2022/03/17 05:39:06;;;;;;;35.07;30.47;;;8.40;99.90;;;;;;5054760;28;20183;-60
2022/03/17 05:41:31;;;;;;;31.57;27.57;;;8.40;99.90;;;;;;5054563;28;20179;-57
2022/03/17 05:43:57;;;;;;;31.87;26.37;;;8.40;99.90;;;;;;5054562;28;20179;-57
2022/03/17 05:46:25;;;;;;;29.70;26.00;;;8.40;99.90;;;;;;5054397;28;20203;-58
2022/03/17 05:48:51;;;;;;;31.27;26.80;;;8.40;99.90;;;;;;5054572;28;20178;-57
2022/03/17 05:51:16;;;;;;;27.87;24.47;;;8.50;99.90;;;;;;5054532;28;20653;-59
2022/03/17 05:53:42;;;;;;;27.97;24.97;;;8.50;99.90;;;;;;5054508;28;20175;-60
2022/03/17 05:56:08;;;;;;;28.63;25.53;;;8.60;99.90;;;;;;5054071;28;20203;-61
2022/03/17 05:58:33;;;;;;;30.03;25.63;;;8.60;99.90;;;;;;5054223;28;20172;-56
2022/03/17 06:00:59;;;;;;;26.90;24.13;;;8.60;99.90;;;;;;5054387;28;20186;-59
2022/03/17 06:03:25;;;;;;;29.53;26.23;;;8.60;99.90;;;;;;5054259;28;20547;-57
2022/03/17 06:05:51;;;;;;;30.70;24.70;;;8.70;99.90;;;;;;5053934;28;20256;-58
2022/03/17 06:08:16;;;;;;;27.83;24.20;;;8.70;99.90;;;;;;5054102;28;20175;-58
2022/03/17 06:10:42;;;;;;;25.00;22.30;;;8.70;99.90;;;;;;5054076;28;20175;-58
2022/03/17 06:13:08;;;;;;;24.23;21.63;;;8.80;99.90;;;;;;5054250;28;20253;-59
2022/03/17 06:15:34;;;;;;;22.87;20.33;;;8.80;99.90;;;;;;5053503;28;20623;-58
2022/03/17 06:18:00;;;;;;;23.67;19.30;;;8.70;99.90;;;;;;5054150;28;20175;-61
2022/03/17 06:20:31;;;;;;;20.33;18.03;;;8.80;99.90;;;;;;5054032;28;20238;-57
2022/03/17 06:22:59;;;;;;;20.57;17.03;;;8.70;99.90;;;;;;5053036;28;20543;-57
2022/03/17 06:25:27;;;;;;;19.67;17.57;;;8.70;99.90;;;;;;5053744;28;20277;-56
2022/03/17 06:27:54;;;;;;;18.43;16.50;;;8.60;99.90;;;;;;5053546;28;20214;-60
2022/03/17 06:30:24;;;;;;;17.97;16.07;;;8.60;99.90;;;;;;5053825;28;20639;-59
2022/03/17 06:32:51;;;;;;;19.70;16.20;;;8.50;99.90;;;;;;5052863;28;20579;-59
2022/03/17 06:35:19;;;;;;;19.67;17.27;;;8.40;99.90;;;;;;5053126;28;20329;-60
2022/03/17 06:37:47;;;;;;;19.17;16.93;;;8.40;99.90;;;;;;5052925;28;20183;-58
2022/03/17 06:40:13;;;;;;;16.97;15.00;;;8.50;99.90;;;;;;5053581;28;20178;-56
2022/03/17 06:42:39;;;;;;;18.37;16.00;;;8.70;99.90;;;;;;5053473;28;20184;-59
2022/03/17 06:45:05;;;;;;;20.10;16.17;;;8.90;99.90;;;;;;5053502;28;20602;-60
2022/03/17 06:47:31;;;;;;;17.47;15.10;;;9.00;99.90;;;;;;5052945;28;20203;-60
2022/03/17 06:49:56;;;;;;;19.63;16.00;;;9.10;99.90;;;;;;5053406;28;20173;-55
2022/03/17 06:52:22;;;;;;;19.57;15.77;;;9.20;99.90;;;;;;5053289;28;20173;-57
2022/03/17 06:54:48;;;;;;;17.40;15.50;;;9.20;99.60;;;;;;5053270;28;20191;-56
2022/03/17 06:57:18;;;;;;;16.63;14.87;;;9.20;99.40;;;;;;5052895;28;20206;-58
2022/03/17 06:59:45;;;;;;;20.07;14.47;;;9.30;99.70;;;;;;5053297;28;20171;-53
2022/03/17 07:02:10;;;;;;;17.30;14.40;;;9.40;99.10;;;;;;5049265;28;20280;-54
2022/03/17 07:04:36;;;;;;;17.60;14.90;;;9.60;99.10;;;;;;5052932;28;20238;-57
2022/03/17 07:07:01;;;;;;;16.03;14.33;;;9.50;99.00;;;;;;5052431;28;20213;-54
2022/03/17 07:09:27;;;;;;;22.20;14.57;;;9.60;99.10;;;;;;5068693;28;20175;-55
2022/03/17 07:11:53;;;;;;;16.63;14.03;;;;;;;;;;5072819;28;20179;-53
2022/03/17 07:14:18;;;;;;;15.73;14.03;;;9.60;99.90;;;;;;5072624;28;20210;-54
2022/03/17 07:16:44;;;;;;;15.97;14.27;;;10.30;99.90;;;;;;5072662;28;20178;-56
2022/03/17 07:19:10;;;;;;;14.73;13.23;;;9.90;99.90;;;;;;5057128;28;20647;-57
2022/03/17 07:21:36;;;;;;;15.60;14.00;;;10.70;99.90;;;;;;5054393;28;20187;-53
2022/03/17 07:24:01;;;;;;;15.80;14.17;;;11.00;99.50;;;;;;5051654;28;20520;-55
2022/03/17 07:26:27;;;;;;;16.13;13.53;;;;;;;;;;5054657;28;20237;-56
2022/03/17 07:28:56;;;;;;;15.57;12.83;;;11.30;99.90;;;;;;5057452;28;20236;-56
2022/03/17 07:31:22;;;;;;;13.97;12.57;;;;;;;;;;5037556;28;20249;-56
2022/03/17 07:33:49;;;;;;;15.67;12.93;;;11.90;99.90;;;;;;5052976;28;20623;-55
2022/03/17 07:36:15;;;;;;;13.83;12.30;;;11.50;99.90;;;;;;5050454;28;20191;-56
2022/03/17 07:38:41;;;;;;;12.77;11.47;;;12.50;99.90;;;;;;5052391;28;20171;-55
2022/03/17 07:41:06;;;;;;;14.43;11.97;;;12.10;99.10;;;;;;5050018;28;20182;-53
2022/03/17 07:43:32;;;;;;;14.67;11.40;;;;;;;;;;5051791;28;20194;-57
2022/03/17 07:45:58;;;;;;;13.53;11.00;;;12.10;99.90;;;;;;5051771;28;20216;-57
2022/03/17 07:48:24;;;;;;;14.27;11.30;;;;;;;;;;5051670;28;20178;-58
2022/03/17 07:50:52;;;;;;;12.53;10.67;;;12.70;97.90;;;;;;5051573;28;20179;-55
2022/03/17 07:53:18;;;;;;;13.87;12.00;;;12.90;98.30;;;;;;5051539;28;20543;-56
2022/03/17 07:55:44;;;;;;;13.63;11.50;;;12.30;91.40;;;;;;5051756;28;20195;-55
2022/03/17 07:58:10;;;;;;;15.37;11.37;;;12.70;91.80;;;;;;5051804;28;20190;-56
2022/03/17 08:00:37;;;;;;;12.37;10.87;;;12.70;91.10;;;;;;5051846;28;20174;-56
2022/03/17 08:03:04;;;;;;;12.07;10.13;;;12.80;90.90;;;;;;5051915;28;20183;-58
2022/03/17 08:05:30;;;;;;;11.70;9.73;;;12.70;90.70;;;;;;5051250;28;20565;-57
2022/03/17 08:07:55;;;;;;;11.83;9.53;;;12.80;90.70;;;;;;5051572;28;20225;-55
2022/03/17 08:10:21;;;;;;;11.77;9.83;;;12.90;90.40;;;;;;5033932;28;20172;-54
2022/03/17 08:12:47;;;;;;;13.60;10.00;;;12.90;89.70;;;;;;5052016;28;20171;-58
2022/03/17 08:15:13;;;;;;;11.10;9.57;;;12.70;90.00;;;;;;5051645;28;20578;-57
2022/03/17 08:17:39;;;;;;;13.10;9.20;;;12.80;90.20;;;;;;5051604;28;20171;-54
2022/03/17 08:20:05;;;;;;;11.47;10.37;;;12.90;89.60;;;;;;5051616;28;20190;-55
2022/03/17 08:22:32;;;;;;;10.80;9.67;;;12.80;88.90;;;;;;5052055;28;20175;-54
2022/03/17 08:24:58;;;;;;;11.40;9.87;;;12.80;89.30;;;;;;5051721;28;20191;-56
2022/03/17 08:27:23;;;;;;;13.00;10.13;;;12.90;88.10;;;;;;5051303;28;20210;-56
2022/03/17 08:29:49;;;;;;;12.73;10.07;;;12.80;87.90;;;;;;5051753;28;20171;-53
2022/03/17 08:32:15;;;;;;;14.27;9.90;;;12.80;88.60;;;;;;5051598;28;20624;-52
2022/03/17 08:34:40;;;;;;;11.10;9.43;;;12.90;87.50;;;;;;5051342;28;20215;-59
2022/03/17 08:37:06;;;;;;;18.63;16.27;;;12.90;85.70;;;;;;5051198;28;20174;-53
2022/03/17 08:39:31;;;;;;;11.93;10.73;;;12.90;91.80;;;;;;5051653;28;20218;-51
2022/03/17 08:41:57;;;;;;;19.43;16.30;;;13.10;90.70;;;;;;5051212;28;20182;-55
2022/03/17 08:44:23;;;;;;;17.27;15.47;;;13.20;92.40;;;;;;5051374;28;20207;-53
2022/03/17 08:49:33;;;;;;;17.60;15.80;;;13.40;93.10;;;;;;5051606;28;20701;-54
2022/03/17 08:52:01;;;;;;;15.73;12.67;;;13.60;92.00;;;;;;5051541;28;20177;-50
2022/03/17 08:54:28;;;;;;;11.37;8.90;;;13.70;91.30;;;;;;5051572;28;20527;-53
2022/03/17 08:56:59;;;;;;;13.77;9.47;;;13.90;86.50;;;;;;5055117;28;20209;-53
2022/03/17 08:59:30;;;;;;;10.50;8.63;;;13.90;86.80;;;;;;5055334;28;20180;-51
2022/03/17 09:02:00;;;;;;;9.57;8.53;;;14.00;86.10;;;;;;5055471;28;20186;-51
2022/03/17 09:04:27;;;;;;;10.27;9.03;;;14.00;83.20;;;;;;5054996;28;20300;-51
2022/03/17 09:06:55;;;;;;;9.90;8.90;;;14.10;84.70;;;;;;5054973;28;20681;-57
2022/03/17 09:09:21;;;;;;;11.13;8.20;;;14.30;84.10;;;;;;5055147;28;20173;-51
2022/03/17 09:11:47;;;;;;;11.60;8.53;;;14.50;83.20;;;;;;5055179;28;20175;-50
2022/03/17 09:14:14;;;;;;;9.60;7.83;;;14.70;80.10;;;;;;5054720;28;20298;-53
2022/03/17 09:16:39;;;;;;;9.70;8.00;;;14.80;82.20;;;;;;5054876;28;20174;-53
2022/03/17 09:19:05;;;;;;;10.13;8.30;;;14.90;80.00;;;;;;5055093;28;20187;-53
2022/03/17 09:21:31;;;;;;;17.07;8.60;;;15.00;78.70;;;;;;5055082;28;20182;-55
2022/03/17 09:23:59;;;;;;;10.63;8.50;;;15.20;79.40;;;;;;5054638;28;20213;-50
2022/03/17 09:26:26;;;;;;;10.13;7.97;;;15.30;78.90;;;;;;5054276;28;20241;-49
2022/03/17 09:28:52;;;;;;;16.20;8.13;;;15.40;78.10;;;;;;5054203;28;20628;-55
2022/03/17 09:31:18;;;;;;;10.63;7.40;;;15.50;76.30;;;;;;5052342;28;20192;-55
2022/03/17 09:33:45;;;;;;;9.73;7.10;;;15.50;76.10;;;;;;5053251;28;20179;-53
2022/03/17 09:36:11;;;;;;;9.00;7.37;;;15.40;75.70;;;;;;5060706;28;20260;-51
2022/03/17 09:38:36;;;;;;;11.73;7.67;;;15.50;76.10;;;;;;5062260;28;20632;-54
2022/03/17 09:41:23;;;;;;;8.00;6.47;;;15.60;74.80;;;;;;5063876;28;20221;-56
2022/03/17 09:43:47;;;;;;;8.97;7.07;;;15.60;73.40;;;;;;5062305;28;20206;-58
2022/03/17 09:46:15;;;;;;;8.83;7.00;;;15.60;72.40;;;;;;5061845;28;20229;-54
2022/03/17 09:48:42;;;;;;;9.00;6.90;;;15.80;72.50;;;;;;5062659;28;20590;-54
2022/03/17 09:51:08;;;;;;;8.03;6.70;;;15.90;71.10;;;;;;5062718;28;20237;-53
2022/03/17 09:53:33;;;;;;;8.97;6.80;;;16.10;71.90;;;;;;5062495;28;20174;-54
2022/03/17 09:55:59;;;;;;;9.57;6.70;;;16.20;69.70;;;;;;5053349;28;20210;-51
2022/03/17 09:58:24;;;;;;;7.83;6.57;;;16.10;69.60;;;;;;5054235;28;20319;-58
2022/03/17 10:00:53;;;;;;;9.50;6.60;;;15.90;69.40;;;;;;5054338;28;20178;-56
2022/03/17 10:03:21;;;;;;;9.10;6.90;;;15.90;70.60;;;;;;5054222;28;20179;-56
2022/03/17 10:05:48;;;;;;;11.03;6.70;;;16.10;70.40;;;;;;5053055;28;20207;-55
2022/03/17 10:08:15;;;;;;;8.80;6.53;;;16.50;70.30;;;;;;5056939;28;20203;-54
2022/03/17 10:10:42;;;;;;;10.80;6.00;;;16.90;68.50;;;;;;5053425;28;20178;-52
2022/03/17 10:13:14;;;;;;;8.60;6.13;;;17.40;67.40;;;;;;5053365;28;20178;-55
2022/03/17 10:15:41;;;;;;;11.93;5.60;;;17.50;65.40;;;;;;5053104;28;20305;-57
2022/03/17 10:20:35;;;;;;;10.53;5.93;;;18.10;64.20;;;;;;5048938;28;20619;-59
2022/03/17 10:23:01;;;;;;;6.93;5.50;;;18.30;62.90;;;;;;5045039;28;20168;-57
2022/03/17 10:25:32;;;;;;;7.50;6.00;;;18.60;62.40;;;;;;5053426;28;20648;-57
2022/03/17 10:27:59;;;;;;;7.00;5.93;;;18.50;60.70;;;;;;5053840;28;20211;-58
2022/03/17 10:30:34;;;;;;;8.10;6.10;;;18.30;61.20;;;;;;5072471;28;20167;-56
2022/03/17 10:33:15;;;;;;;7.70;5.73;;;18.40;61.40;;;;;;5073118;28;20173;-59
2022/03/17 10:35:45;;;;;;;8.60;6.43;;;18.50;61.50;;;;;;5072126;28;20183;-55
2022/03/17 10:38:19;;;;;;;9.13;5.80;;;18.50;59.40;;;;;;5070588;28;20163;-54
2022/03/17 10:41:00;;;;;;;8.30;5.53;;;18.20;59.40;;;;;;5072726;28;20170;-58
2022/03/17 10:43:26;;;;;;;6.77;5.63;;;17.70;60.10;;;;;;5072802;28;20178;-55
2022/03/17 10:46:20;;;;;;;5.83;5.27;;;17.40;61.60;;;;;;5069710;28;20206;-56
2022/03/17 10:49:06;;;;;;;10.07;5.40;;;17.20;60.50;;;;;;5072628;28;20247;-56
2022/03/17 10:51:34;;;;;;;16.93;15.27;;;17.10;59.20;;;;;;5072600;28;20199;-53
2022/03/17 10:54:06;;;;;;;18.73;16.77;;;17.00;73.10;;;;;;5071712;28;20185;-59
2022/03/17 10:56:33;;;;;;;20.47;18.37;;;16.90;77.80;;;;;;5072029;28;20193;-59
2022/03/17 10:59:00;;;;;;;22.50;18.13;;;16.70;79.40;;;;;;5072250;28;20197;-60
2022/03/17 11:01:40;;;;;;;21.03;19.13;;;16.30;81.30;;;;;;5054555;28;20183;-58
2022/03/17 11:04:06;;;;;;;19.67;17.57;;;15.60;83.10;;;;;;5072302;28;20186;-59
2022/03/17 11:06:33;;;;;;;19.53;17.43;;;15.30;84.60;;;;;;5072264;28;20245;-58
2022/03/17 11:09:01;;;;;;;19.17;17.17;;;15.40;85.00;;;;;;5072630;28;20190;-58
2022/03/17 11:11:30;;;;;;;20.03;17.73;;;15.70;83.90;;;;;;5072871;28;20198;-55
2022/03/17 11:13:57;;;;;;;18.23;16.50;;;16.10;82.10;;;;;;5072068;28;20296;-57
2022/03/17 11:16:46;;;;;;;18.07;16.27;;;16.50;83.30;;;;;;5072566;28;20260;-56
2022/03/17 11:19:17;;;;;;;17.63;15.90;;;16.40;84.30;;;;;;5070699;28;20229;-57
2022/03/17 11:21:49;;;;;;;17.63;15.83;;;16.40;82.80;;;;;;5072163;28;20177;-58
2022/03/17 11:24:22;;;;;;;20.73;16.17;;;16.20;81.70;;;;;;5072108;28;20221;-59
2022/03/17 11:26:49;;;;;;;17.63;15.73;;;16.00;83.20;;;;;;5071729;28;20234;-56
2022/03/17 11:29:21;;;;;;;17.53;15.60;;;16.00;82.10;;;;;;5071931;28;20194;-58
2022/03/17 11:31:51;;;;;;;16.97;15.20;;;16.50;82.40;;;;;;5072359;28;20172;-59
2022/03/17 11:34:46;;;;;;;17.23;15.03;;;16.60;81.90;;;;;;5070929;28;20171;-57
2022/03/17 11:37:15;;;;;;;17.53;14.40;;;17.10;81.80;;;;;;5069831;28;20204;-58
2022/03/17 11:39:47;;;;;;;17.43;14.63;;;16.80;89.90;;;;;;5071382;28;20200;-59
2022/03/17 11:43:04;;;;;;;17.17;15.40;;;16.10;81.70;;;;;;5071442;28;20167;-61
2022/03/17 11:45:36;;;;;;;16.97;14.43;;;15.90;83.70;;;;;;5003758;28;20251;-60
2022/03/17 11:48:08;;;;;;;17.67;14.47;;;15.80;84.50;;;;;;5005097;28;20215;-60
2022/03/17 11:50:40;;;;;;;18.20;15.23;;;15.70;82.60;;;;;;5008714;28;20673;-59
2022/03/17 11:53:20;;;;;;;19.00;14.47;;;15.70;84.90;;;;;;5008006;28;20791;-60
2022/03/17 11:55:46;;;;;;;16.07;14.47;;;15.60;84.30;;;;;;5008105;28;20192;-60
2022/03/17 11:58:42;;;;;;;15.03;13.43;;;15.80;82.30;;;;;;5009434;28;20180;-59
2022/03/17 12:01:39;;;;;;;14.73;13.10;;;16.40;83.80;;;;;;5009536;28;20177;-59
2022/03/17 12:04:05;;;;;;;14.03;12.70;;;16.90;81.40;;;;;;5007877;28;20191;-59
2022/03/17 12:06:38;;;;;;;14.97;13.53;;;17.20;80.50;;;;;;5008272;28;20638;-59
2022/03/17 12:09:11;;;;;;;19.67;13.07;;;17.40;79.90;;;;;;5010029;28;20196;-57
2022/03/17 12:11:47;;;;;;;16.07;12.87;;;17.80;81.70;;;;;;5006118;28;20685;-52
2022/03/17 12:14:17;;;;;;;19.83;12.17;;;18.60;77.90;;;;;;5012890;28;20192;-50
2022/03/17 12:16:49;;;;;;;13.43;12.10;;;18.40;75.30;;;;;;4994427;28;20191;-56
2022/03/17 12:19:40;;;;;;;16.13;12.53;;;17.80;76.40;;;;;;5009045;28;20216;-53
2022/03/17 12:22:13;;;;;;;13.00;11.60;;;17.40;76.70;;;;;;5071545;28;20175;-52
2022/03/17 12:24:58;;;;;;;13.60;11.10;;;17.30;78.50;;;;;;5067771;28;20186;-53
2022/03/17 12:27:32;;;;;;;12.87;11.43;;;17.60;80.30;;;;;;5069365;28;20221;-57
2022/03/17 12:30:02;;;;;;;14.67;10.67;;;17.80;76.00;;;;;;5071057;28;20281;-52
2022/03/17 12:32:37;;;;;;;12.90;11.33;;;17.70;75.00;;;;;;5072302;28;20778;-59
2022/03/17 12:35:04;;;;;;;13.10;10.50;;;17.50;76.80;;;;;;5048723;28;20260;-56
2022/03/17 12:37:32;;;;;;;12.50;11.20;;;17.60;74.40;;;;;;5066214;28;20186;-60
2022/03/17 12:40:01;;;;;;;13.80;10.93;;;17.60;74.50;;;;;;5068698;28;20201;-57
2022/03/17 12:42:32;;;;;;;15.40;11.07;;;17.60;76.50;;;;;;5080645;28;20242;-59
2022/03/17 12:45:05;;;;;;;16.47;10.97;;;17.80;75.60;;;;;;5071043;28;20185;-59
2022/03/17 12:47:35;;;;;;;12.03;10.37;;;17.70;72.80;;;;;;5068950;28;20193;-59
2022/03/17 12:50:06;;;;;;;13.87;10.17;;;17.40;72.20;;;;;;5070719;28;20216;-59
2022/03/17 12:52:32;;;;;;;11.80;10.20;;;17.30;73.80;;;;;;5070360;28;20203;-58
2022/03/17 12:55:00;;;;;;;11.23;10.10;;;17.10;76.60;;;;;;5070501;28;20181;-59
2022/03/17 12:57:31;;;;;;;14.67;10.33;;;17.00;75.40;;;;;;5070202;28;20188;-59
2022/03/17 12:59:57;;;;;;;11.13;9.70;;;17.00;75.00;;;;;;5071119;28;20206;-55